Rakitna Rakitna

Učna pot


Verjetnost toče več informacij Hail probability


Moja kamera več informacij My webcam


Cestna kamera več informacij Road camera


ARSO, spremljajte nas več informacij


Obiščite še:

Template documentacija
in prenos

in še drugo stran



Posebna pozornost v zvezi z vremenskimi dogajanji ni potrebna.    Posebna pozornost v zvezi z vremenskimi dogajanji ni potrebna.

METAR v bližini

   
LJLJ - Ljubljana
Posodobljeno: 12-12-2019 09:30
pretežno oblačno  
pretežno oblačno  
   Veter: različen 1.9 km/h
Veter: različen 1.9 km/h
Temperatura: -3°C
Točka rosišča: -4°C
Vlažnost: 93%
Zračni tlak: 1008 hPa
Oblaki: pretežno oblačno
Vidljivost: več kot 10 km
Podrobnosti o oblakih: pretežno oblačno 2600 ft,
pretežno oblačno 4500 ft
LJLJ 120830Z VRB01KT 9999 BKN026 BKN045 M03/M04 Q1008 NOSIG
LJCE - Cerklje ob Krki
Posodobljeno: 12-12-2019 09:30
oblačno  
oblačno  
   Veter: JJZ 1.9 km/h
Veter: JJZ 1.9 km/h
Temperatura: 0°C
Točka rosišča: -2°C
Vlažnost: 87%
Zračni tlak: 1009 hPa
Oblaki: oblačno
Vidljivost: več kot 10 km
Podrobnosti o oblakih: oblačno 1700 ft
LJCE 120830Z 20001KT 9999 OVC017 M00/M02 Q1009 RMK WHT
LJMB - Maribor
Posodobljeno: 12-12-2019 09:30
pretežno oblačno  
pretežno oblačno  
   Veter: SSZ 5.6 km/h
Veter: SSZ 5.6 km/h
Temperatura: -2°C
Občutek mraza: -4°C
Točka rosišča: -4°C
Vlažnost: 86%
Zračni tlak: 1008 hPa
Oblaki: pretežno oblačno
Vidljivost: več kot 10 km
Podrobnosti o oblakih: pretežno oblačno 3300 ft
LJMB 120830Z 33003KT 9999 BKN033 M02/M04 Q1008 R32/CLRD//
LJPZ - Portorož
Posodobljeno: 12-12-2019 09:30
delno oblačno  
delno oblačno  
   Veter: različen 3.7 km/h
Veter: različen 3.7 km/h
Temperatura: 3°C
Točka rosišča: -1°C
Vlažnost: 75%
Zračni tlak: 1006 hPa
Oblaki: delno oblačno
Vidljivost: več kot 10 km
Podrobnosti o oblakih: nekaj oblakov 5000 ft,
delno oblačno 6500 ft
LJPZ 120830Z VRB02KT 9999 FEW050 SCT065 03/M01 Q1006
LDRI - Rijeka, Airport, Croatia
Posodobljeno: 12-12-2019 09:30
pretežno oblačno  
pretežno oblačno  
   Veter: VSV 11.1 km/h
Veter: VSV 11.1 km/h
Temperatura: 6°C
Občutek mraza: 4°C
Točka rosišča: -1°C
Vlažnost: 61%
Zračni tlak: 1006 hPa
Oblaki: pretežno oblačno
Vidljivost: več kot 10 km
Podrobnosti o oblakih: nekaj oblakov 3400 ft,
pretežno oblačno 4700 ft
LDRI 120830Z 07006KT 9999 FEW034 BKN047 06/M01 Q1006
LOWK - Klagenfurt, Airport, Avstia
Posodobljeno: 12-12-2019 09:50
oblačno  
oblačno  
   Veter: različen 3.7 km/h
Veter: različen 3.7 km/h
Temperatura: -5°C
Točka rosišča: -7°C
Vlažnost: 86%
Zračni tlak: 1009 hPa
Oblaki: oblačno
Vidljivost: več kot 10 km
Podrobnosti o oblakih: oblačno 800 ft
LOWK 120850Z VRB02KT 9999 OVC008 M05/M07 Q1009 NOSIG

Script developed by  Saratoga-weather.org Adapted for the template by  Weerstation Leuven

Vremenski podatki so objavljeni na:

Weather Underground

Slovenska vremenska mreža

WeatherlinkIP

MapView

Geostik

Oprema, ki se uporablja:

Vremenska postaja
Davis VP2+ ventilirana

Vremenski program
WeatherLink

Vremenski server
Shuttle XS35V4

Ponudnik
Vremensko društvo ZEVS

Davis VP2+ ventilirana

WeatherLink

Shuttle XS35V4

Vremensko društvo ZEVS

Meteorološki podatki vremenske postaje Rakitna so neuradni, meteorološka postaja sama pa ni del državne mreže Agencije Republike Slovenije za okolje (ARSO),
je pa vključena v Vremensko društvo ZEVS. Prikazani podatki so izmerjeni točno, vendar so zgolj informativni in nimajo značaja uradnega podatka.

Podatke meri vremenska postaja "Davis VP2+ ventilirana" od 05.03.2011 dalje.

Opozarjamo, da ne prevzamemo odgovornosti za morebitno nastalo škodo, ki bi nastala zaradi odločitve, sprejete na osnovi teh podatkov!